Gold Beach, OR

12:47 AM PDT on September 22, 2014 (GMT -0700)
RAWS FLYNN PRAIRIE OR US | Change Station
CLOSE
Current Station
Personal Weather Station
Location: Gold Beach, OR
Elevation: 1542 ft
Nearby Weather Stations

Elev 1542 ft 42.40 °N, 124.38 °W | Updated 34 minutes ago

Overcast
Overcast
55 °F
Feels Like 55 °F
N
8
Wind Variable Wind from SSW
Gusts 14.0 mph

Today
High -- | Low -- °F
--% Chance of Precip.
Yesterday
High -- | Low -- °F
Precip. -- in
7:04 AM 7:14 PM
Waning Crescent, 3% visible
Pressure 30.04 in
Visibility 10.0 miles
Clouds Overcast 2100 ft
Dew Point 54 °F
Humidity 97%
Rainfall 0.00 in
Snow Depth Not available.
UV 0 out of 12
Pollen 4.00 out of 12
Air Quality Not available.
Flu Activity Not available.
METAR KBOK 220656Z AUTO 13003KT 10SM OVC021 15/14 A3004 RMK AO2 T01500144 401770144 SLP171

More Conditions Fewer Conditions

Pressure 30.04 in
Visibility 10.0 miles
Clouds Overcast 2100 ft
Dew Point 54 °F
Humidity 97%
Rainfall 0.00 in
Snow Depth Not available.
UV 0 out of 12
Pollen 4.00 out of 12
Air Quality Not available.
Flu Activity Not available.
METAR KBOK 220656Z AUTO 13003KT 10SM OVC021 15/14 A3004 RMK AO2 T01500144 401770144 SLP171

More Conditions Fewer Conditions

10-Day Weather Forecast

Almanac

Astronomy

Sep. 22, 2014 Rise Set
Actual Time 7:04 AM PDT 7:14 PM PDT
Civil Twilight 6:36 AM PDT 7:42 PM PDT
Nautical Twilight 6:03 AM PDT 8:15 PM PDT
Astronomical Twilight 5:30 AM PDT 8:48 PM PDT
Moon 5:37 AM PDT 6:25 PM PDT
Length of Visible Light 13h 05m
Length of Day
12h 09m
Tomorrow will be 2m 52s shorter.
Waning Crescent, 3% of the Moon is Illuminated
Today
Waning Crescent
Sep 24
New
Oct 1
First Quarter
Oct 8
Full
Oct 15
Last Quarter

Today's Extremes

State Highs State Lows

Community

WunderPhotos

Upload Photos

1,755,392 photos uploaded!

Nearby

Snow Depth

Station Depth Elevation
Derr 0 in 5670 ft
Red Hill 0 in 4400 ft
Mt. Howard 0 in 7910 ft
Schneider Meadows 0 in 5400 ft
Irish Taylor 0 in 5500 ft

Earthquake Activity

City Distance Mag. Time & Date
Eureka, California 105 miles 3.1 1:33 PM PDT
2014-09-20
Minimum magnitude displayed is 2.5.

Coastal Water Temperatures

Place Temperature
Port Orford, OR 55.9 °F
Crescent City, CA 63.0 °F
Charleston, OR 57.9 °F

Nearby Weather Stations